Time;durP1;ratioP1;P1;durP2;ratioP2;P2;SDS_P1;SDS_P2;PMS_P1;PMS_P2;Temp;Humidity;BMP_temperature;BMP_pressure;BME280_temperature;BME280_humidity;BME280_pressure;Samples;Min_cycle;Max_cycle;Signal;HPM_P1;HPM_P2
2021/07/08 00:01:25;;;;;;;;;;;18.50;78.30;;;;;;5078534;28;19943;-37
2021/07/08 00:03:51;;;;;;;;;;;18.40;78.40;;;;;;5097571;28;20013;-38
2021/07/08 00:06:16;;;;;;;;;;;18.40;78.50;;;;;;5078471;28;19904;-37
2021/07/08 00:08:42;;;;;;;;;;;18.30;78.70;;;;;;5096426;28;20053;-37
2021/07/08 00:11:07;;;;;;;;;;;18.30;79.60;;;;;;5096730;28;19904;-38
2021/07/08 00:13:33;;;;;;;;;;;18.20;79.60;;;;;;5096797;28;19908;-37
2021/07/08 00:15:59;;;;;;;;;;;18.20;79.60;;;;;;5096659;28;19942;-37
2021/07/08 00:18:26;;;;;;;;;;;18.20;79.90;;;;;;5096441;28;19904;-38
2021/07/08 00:20:52;;;;;;;;;;;18.10;80.10;;;;;;5078662;28;19925;-38
2021/07/08 00:23:18;;;;;;;;;;;18.00;80.40;;;;;;5096485;28;19904;-38
2021/07/08 00:25:45;;;;;;;;;;;18.00;80.70;;;;;;5078122;28;19904;-37
2021/07/08 00:28:15;;;;;;;;;;;17.90;81.20;;;;;;5077928;28;19915;-38
2021/07/08 00:30:41;;;;;;;;;;;18.00;81.00;;;;;;5095538;28;19999;-37
2021/07/08 00:33:06;;;;;;;;;;;17.80;81.60;;;;;;5096715;28;19915;-38
2021/07/08 00:35:32;;;;;;;;;;;17.70;82.10;;;;;;5095939;28;19916;-37
2021/07/08 00:37:58;;;;;;;;;;;17.70;82.30;;;;;;5096022;28;19999;-37
2021/07/08 00:40:23;;;;;;;;;;;17.70;82.70;;;;;;5095953;28;19911;-37
2021/07/08 00:42:49;;;;;;;;;;;17.60;82.80;;;;;;5096122;28;20409;-37
2021/07/08 00:45:16;;;;;;;;;;;17.60;83.00;;;;;;5095898;28;20381;-37
2021/07/08 00:47:42;;;;;;;;;;;17.50;83.10;;;;;;5095734;28;19908;-37
2021/07/08 00:50:08;;;;;;;;;;;17.50;83.40;;;;;;5095707;28;19908;-37
2021/07/08 00:52:34;;;;;;;;;;;17.70;82.60;;;;;;5095649;28;19942;-37
2021/07/08 00:55:00;;;;;;;;;;;17.60;83.00;;;;;;5077893;28;19904;-37
2021/07/08 00:57:25;;;;;;;;;;;17.50;83.10;;;;;;5095614;28;19943;-37
2021/07/08 00:59:53;;;;;;;;;;;17.30;83.80;;;;;;5095722;28;19904;-37
2021/07/08 01:02:19;;;;;;;;;;;17.30;84.00;;;;;;5095248;28;19947;-37
2021/07/08 01:04:45;;;;;;;;;;;17.30;83.90;;;;;;5095340;28;19904;-37
2021/07/08 01:07:11;;;;;;;;;;;17.30;84.00;;;;;;5095569;28;19915;-40
2021/07/08 01:09:37;;;;;;;;;;;17.30;84.30;;;;;;5095185;28;19908;-37
2021/07/08 01:12:03;;;;;;;;;;;17.30;84.30;;;;;;5095180;28;19910;-37
2021/07/08 01:14:28;;;;;;;;;;;17.30;84.10;;;;;;5095165;28;20272;-37
2021/07/08 01:16:54;;;;;;;;;;;17.30;84.00;;;;;;5076878;28;19904;-37
2021/07/08 01:19:20;;;;;;;;;;;17.40;84.00;;;;;;5095262;28;19911;-37
2021/07/08 01:21:45;;;;;;;;;;;17.30;84.10;;;;;;5076680;28;19949;-37
2021/07/08 01:24:11;;;;;;;;;;;17.30;84.30;;;;;;5094970;28;19904;-37
2021/07/08 01:26:40;;;;;;;;;;;17.30;84.40;;;;;;5095056;28;19954;-37
2021/07/08 01:29:07;;;;;;;;;;;17.30;84.40;;;;;;5077114;28;20309;-37
2021/07/08 01:31:33;;;;;;;;;;;17.30;84.50;;;;;;5094834;28;20348;-37
2021/07/08 01:33:58;;;;;;;;;;;17.30;84.40;;;;;;5094713;28;19985;-37
2021/07/08 01:36:24;;;;;;;;;;;17.30;84.70;;;;;;5094706;28;19910;-37
2021/07/08 01:38:50;;;;;;;;;;;17.20;84.80;;;;;;5094646;28;20337;-37
2021/07/08 01:41:16;;;;;;;;;;;17.20;85.00;;;;;;5059777;28;19947;-42
2021/07/08 01:43:42;;;;;;;;;;;17.20;85.10;;;;;;5094523;28;19904;-37
2021/07/08 01:46:09;;;;;;;;;;;17.10;85.10;;;;;;5094599;28;19953;-36
2021/07/08 01:48:35;;;;;;;;;;;17.10;85.30;;;;;;5076220;28;19908;-37
2021/07/08 01:51:03;;;;;;;;;;;17.10;85.40;;;;;;5094668;28;19934;-37
2021/07/08 01:53:28;;;;;;;;;;;17.10;85.40;;;;;;5094370;28;19911;-37
2021/07/08 01:55:56;;;;;;;;;;;17.10;85.30;;;;;;5094318;28;20348;-37
2021/07/08 01:58:22;;;;;;;;;;;17.00;85.10;;;;;;5094493;28;19904;-36
2021/07/08 02:00:48;;;;;;;;;;;17.00;85.20;;;;;;5094432;28;19904;-36
2021/07/08 02:03:13;;;;;;;;;;;17.00;85.30;;;;;;5094412;28;19935;-36
2021/07/08 02:05:39;;;;;;;;;;;16.90;85.40;;;;;;5094194;28;19905;-36
2021/07/08 02:08:04;;;;;;;;;;;17.00;85.70;;;;;;5094054;28;20416;-36
2021/07/08 02:10:30;;;;;;;;;;;16.90;85.50;;;;;;5094124;28;19924;-36
2021/07/08 02:12:55;;;;;;;;;;;16.90;85.50;;;;;;5094331;28;19904;-36
2021/07/08 02:15:21;;;;;;;;;;;16.80;85.50;;;;;;5093965;28;19914;-36
2021/07/08 02:17:47;;;;;;;;;;;16.80;85.80;;;;;;5094009;28;19908;-36
2021/07/08 02:20:13;;;;;;;;;;;16.70;86.00;;;;;;5093823;28;19904;-36
2021/07/08 02:22:39;;;;;;;;;;;16.80;85.90;;;;;;5094169;28;19932;-36
2021/07/08 02:25:05;;;;;;;;;;;16.80;85.90;;;;;;5094296;28;19958;-38
2021/07/08 02:27:30;;;;;;;;;;;16.80;85.70;;;;;;5094008;28;19908;-36
2021/07/08 02:29:56;;;;;;;;;;;16.70;86.20;;;;;;5093783;28;19915;-36
2021/07/08 02:32:22;;;;;;;;;;;16.60;86.10;;;;;;5093757;28;19908;-36
2021/07/08 02:34:48;;;;;;;;;;;16.60;86.10;;;;;;5093533;28;19999;-40
2021/07/08 02:37:14;;;;;;;;;;;16.50;86.30;;;;;;5093695;28;19905;-37
2021/07/08 02:39:40;;;;;;;;;;;16.50;86.40;;;;;;5093703;28;20420;-36
2021/07/08 02:42:05;;;;;;;;;;;16.50;86.20;;;;;;5094174;28;19908;-35
2021/07/08 02:44:31;;;;;;;;;;;16.50;86.40;;;;;;5094028;28;19987;-36
2021/07/08 02:46:57;;;;;;;;;;;16.40;86.50;;;;;;5093985;28;20011;-36
2021/07/08 02:49:22;;;;;;;;;;;16.40;86.60;;;;;;5093711;28;19992;-36
2021/07/08 02:51:48;;;;;;;;;;;16.30;86.90;;;;;;5093936;28;20019;-36
2021/07/08 02:54:13;;;;;;;;;;;16.40;86.70;;;;;;5079547;28;20312;-37
2021/07/08 02:56:39;;;;;;;;;;;16.40;86.20;;;;;;5082327;28;19943;-36
2021/07/08 02:59:04;;;;;;;;;;;16.40;86.50;;;;;;5100406;28;19951;-36
2021/07/08 03:01:30;;;;;;;;;;;16.30;86.70;;;;;;5100404;28;19998;-36
2021/07/08 03:03:55;;;;;;;;;;;16.20;87.00;;;;;;5100351;28;19904;-36
2021/07/08 03:06:21;;;;;;;;;;;16.20;87.10;;;;;;5100307;28;20332;-36
2021/07/08 03:08:46;;;;;;;;;;;16.20;87.00;;;;;;5100155;28;19919;-36
2021/07/08 03:11:12;;;;;;;;;;;16.20;87.20;;;;;;5100170;28;19904;-45
2021/07/08 03:13:38;;;;;;;;;;;16.10;87.60;;;;;;5100446;28;19911;-36
2021/07/08 03:16:04;;;;;;;;;;;16.10;87.70;;;;;;5100340;28;19904;-37
2021/07/08 03:18:30;;;;;;;;;;;16.20;87.70;;;;;;5100155;28;19926;-36
2021/07/08 03:20:55;;;;;;;;;;;16.20;87.90;;;;;;5099991;28;19995;-37
2021/07/08 03:23:21;;;;;;;;;;;16.20;87.80;;;;;;5100301;28;19995;-37
2021/07/08 03:25:46;;;;;;;;;;;16.30;87.30;;;;;;5100361;28;19953;-37
2021/07/08 03:28:12;;;;;;;;;;;16.30;87.30;;;;;;5099982;28;19908;-37
2021/07/08 03:30:37;;;;;;;;;;;16.30;87.40;;;;;;5100637;28;19957;-37
2021/07/08 03:33:03;;;;;;;;;;;16.30;87.50;;;;;;5100057;28;19911;-36
2021/07/08 03:35:29;;;;;;;;;;;16.30;87.40;;;;;;5100106;28;19922;-36
2021/07/08 03:37:56;;;;;;;;;;;16.30;87.50;;;;;;5100363;28;20422;-38
2021/07/08 03:40:21;;;;;;;;;;;16.30;87.40;;;;;;5100336;28;19927;-37
2021/07/08 03:42:50;;;;;;;;;;;16.30;87.40;;;;;;5100105;28;20359;-37
2021/07/08 03:45:17;;;;;;;;;;;16.30;87.60;;;;;;5100259;28;20329;-37
2021/07/08 03:47:43;;;;;;;;;;;16.30;87.70;;;;;;5099888;28;19912;-37
2021/07/08 03:50:10;;;;;;;;;;;16.30;87.60;;;;;;5099936;28;19910;-36
2021/07/08 03:52:39;;;;;;;;;;;16.30;87.50;;;;;;5100542;28;19908;-36
2021/07/08 03:55:06;;;;;;;;;;;16.30;87.30;;;;;;5099880;28;19911;-36
2021/07/08 03:57:31;;;;;;;;;;;16.40;86.80;;;;;;5100207;28;20271;-37
2021/07/08 03:59:57;;;;;;;;;;;16.30;86.80;;;;;;5099872;28;19904;-38
2021/07/08 04:02:22;;;;;;;;;;;16.30;87.20;;;;;;5100142;28;19911;-37
2021/07/08 04:04:48;;;;;;;;;;;16.20;87.50;;;;;;5098611;28;20248;-37
2021/07/08 04:07:13;;;;;;;;;;;16.30;87.30;;;;;;5096327;28;19954;-35
2021/07/08 04:09:39;;;;;;;;;;;16.30;87.40;;;;;;5096754;28;20300;-35
2021/07/08 04:12:05;;;;;;;;;;;16.40;87.00;;;;;;5096657;28;19904;-36
2021/07/08 04:14:30;;;;;;;;;;;16.30;86.70;;;;;;5096493;28;20391;-36
2021/07/08 04:16:56;;;;;;;;;;;16.30;87.00;;;;;;5096532;28;19992;-37
2021/07/08 04:19:22;;;;;;;;;;;16.40;87.20;;;;;;5078331;28;20094;-36
2021/07/08 04:21:47;;;;;;;;;;;16.40;87.10;;;;;;5096454;28;19958;-36
2021/07/08 04:24:13;;;;;;;;;;;16.40;87.10;;;;;;5096334;28;20374;-37
2021/07/08 04:26:38;;;;;;;;;;;16.50;86.70;;;;;;5096244;28;19911;-36
2021/07/08 04:29:04;;;;;;;;;;;16.50;86.70;;;;;;5096137;28;20043;-36
2021/07/08 04:31:30;;;;;;;;;;;16.50;86.20;;;;;;5096251;28;19904;-36
2021/07/08 04:33:55;;;;;;;;;;;16.50;86.30;;;;;;5096213;28;19969;-37
2021/07/08 04:36:21;;;;;;;;;;;16.50;86.10;;;;;;5077873;28;19908;-36
2021/07/08 04:38:51;;;;;;;;;;;16.50;86.10;;;;;;5096281;28;19907;-36
2021/07/08 04:41:17;;;;;;;;;;;16.50;86.10;;;;;;5096268;28;20264;-36
2021/07/08 04:43:42;;;;;;;;;;;16.30;86.80;;;;;;5096193;28;19911;-37
2021/07/08 04:46:08;;;;;;;;;;;16.30;86.80;;;;;;5096140;28;19904;-36
2021/07/08 04:48:34;;;;;;;;;;;16.40;86.70;;;;;;5095741;28;20333;-37
2021/07/08 04:51:00;;;;;;;;;;;16.40;86.70;;;;;;5095797;28;19946;-36
2021/07/08 04:53:26;;;;;;;;;;;16.40;86.80;;;;;;5095703;28;19904;-36
2021/07/08 04:55:51;;;;;;;;;;;16.40;86.90;;;;;;5095714;28;19904;-36
2021/07/08 04:58:17;;;;;;;;;;;16.50;86.70;;;;;;5077537;28;19908;-36
2021/07/08 05:00:42;;;;;;;;;;;16.60;86.50;;;;;;5095499;28;20332;-37
2021/07/08 05:03:08;;;;;;;;;;;16.70;86.30;;;;;;5095625;28;19908;-36
2021/07/08 05:05:34;;;;;;;;;;;16.80;86.00;;;;;;5095521;28;19908;-36
2021/07/08 05:08:00;;;;;;;;;;;16.80;85.50;;;;;;5095348;28;19908;-36
2021/07/08 05:10:25;;;;;;;;;;;17.10;84.80;;;;;;5095355;28;20407;-35
2021/07/08 05:12:51;;;;;;;;;;;17.30;84.10;;;;;;5095658;28;19911;-36
2021/07/08 05:15:17;;;;;;;;;;;17.30;83.70;;;;;;5077186;28;19908;-36
2021/07/08 05:17:44;;;;;;;;;;;17.50;83.40;;;;;;5095146;28;19966;-36
2021/07/08 05:20:10;;;;;;;;;;;17.70;82.80;;;;;;5095347;28;19998;-36
2021/07/08 05:22:36;;;;;;;;;;;17.70;82.30;;;;;;5095390;28;19989;-36
2021/07/08 05:25:02;;;;;;;;;;;17.80;82.00;;;;;;5095157;28;19911;-36
2021/07/08 05:27:29;;;;;;;;;;;18.00;81.40;;;;;;5095017;28;20351;-37
2021/07/08 05:29:56;;;;;;;;;;;18.10;80.90;;;;;;5094958;28;19904;-36
2021/07/08 05:32:22;;;;;;;;;;;18.10;81.10;;;;;;5077567;28;19992;-36
2021/07/08 05:34:47;;;;;;;;;;;18.30;80.40;;;;;;5094961;28;19943;-36
2021/07/08 05:37:13;;;;;;;;;;;18.30;79.50;;;;;;5094822;28;19951;-36
2021/07/08 05:39:38;;;;;;;;;;;18.20;80.70;;;;;;5094666;28;20307;-37
2021/07/08 05:42:04;;;;;;;;;;;18.20;80.40;;;;;;5076376;28;19911;-35
2021/07/08 05:44:30;;;;;;;;;;;18.30;79.90;;;;;;5094617;28;20287;-37
2021/07/08 05:46:56;;;;;;;;;;;18.40;78.00;;;;;;5094913;28;19914;-35
2021/07/08 05:49:21;;;;;;;;;;;18.60;76.70;;;;;;5094627;28;20348;-36
2021/07/08 05:51:47;;;;;;;;;;;18.80;76.80;;;;;;5094366;28;19995;-37
2021/07/08 05:54:13;;;;;;;;;;;18.80;76.90;;;;;;5094478;28;20416;-36
2021/07/08 05:56:38;;;;;;;;;;;18.90;76.60;;;;;;5094424;28;20271;-36
2021/07/08 05:59:04;;;;;;;;;;;19.10;76.50;;;;;;5094217;28;20370;-37
2021/07/08 06:01:29;;;;;;;;;;;19.10;76.90;;;;;;5094424;28;19904;-36
2021/07/08 06:03:55;;;;;;;;;;;19.30;76.40;;;;;;5094138;28;19915;-36
2021/07/08 06:06:20;;;;;;;;;;;19.40;75.80;;;;;;5094058;28;19926;-36
2021/07/08 06:08:49;;;;;;;;;;;19.20;76.80;;;;;;5094346;28;19912;-36
2021/07/08 06:11:15;;;;;;;;;;;19.20;77.00;;;;;;5076522;28;19911;-36
2021/07/08 06:13:41;;;;;;;;;;;19.20;76.90;;;;;;5094109;28;20351;-36
2021/07/08 06:16:06;;;;;;;;;;;19.20;76.40;;;;;;5094461;28;19915;-36
2021/07/08 06:18:32;;;;;;;;;;;19.20;76.60;;;;;;5094649;28;19943;-37
2021/07/08 06:20:57;;;;;;;;;;;19.30;76.70;;;;;;5094067;28;19910;-36
2021/07/08 06:23:23;;;;;;;;;;;19.60;76.00;;;;;;5094956;28;19904;-35
2021/07/08 06:25:49;;;;;;;;;;;19.30;77.00;;;;;;5076460;28;19904;-36
2021/07/08 06:28:15;;;;;;;;;;;19.50;76.30;;;;;;5093766;28;19908;-37
2021/07/08 06:30:41;;;;;;;;;;;19.40;76.60;;;;;;5094803;28;19911;-37
2021/07/08 06:33:07;;;;;;;;;;;19.30;76.80;;;;;;5095205;28;19908;-37
2021/07/08 06:35:33;;;;;;;;;;;19.30;76.30;;;;;;5057071;28;19920;-37
2021/07/08 06:37:58;;;;;;;;;;;19.50;75.40;;;;;;5053450;28;20241;-37
2021/07/08 06:40:24;;;;;;;;;;;19.80;75.60;;;;;;5053396;28;20348;-35
2021/07/08 06:42:49;;;;;;;;;;;20.00;75.40;;;;;;5053917;28;19904;-35
2021/07/08 06:45:16;;;;;;;;;;;19.80;76.00;;;;;;5053714;28;19905;-36
2021/07/08 06:47:44;;;;;;;;;;;19.80;76.30;;;;;;5053362;28;19912;-38
2021/07/08 06:50:10;;;;;;;;;;;19.60;76.80;;;;;;5053564;28;20344;-36
2021/07/08 06:52:36;;;;;;;;;;;19.60;77.50;;;;;;5053152;28;19912;-36
2021/07/08 06:55:02;;;;;;;;;;;19.80;76.60;;;;;;5053417;28;19931;-36
2021/07/08 06:57:28;;;;;;;;;;;19.80;75.90;;;;;;5053227;28;20004;-37
2021/07/08 06:59:53;;;;;;;;;;;20.00;75.30;;;;;;5053255;28;20039;-37
2021/07/08 07:02:19;;;;;;;;;;;19.80;76.20;;;;;;5052812;28;19904;-36
2021/07/08 07:04:45;;;;;;;;;;;20.00;74.20;;;;;;5053091;28;19904;-38
2021/07/08 07:07:10;;;;;;;;;;;20.10;73.50;;;;;;5053194;28;19916;-37
2021/07/08 07:09:36;;;;;;;;;;;20.50;71.10;;;;;;5052303;28;20093;-37
2021/07/08 07:12:01;;;;;;;;;;;20.70;69.60;;;;;;5052980;28;19909;-37
2021/07/08 07:14:27;;;;;;;;;;;20.60;68.60;;;;;;5053073;28;19912;-37
2021/07/08 07:16:52;;;;;;;;;;;20.80;69.30;;;;;;5051890;28;19905;-37
2021/07/08 07:19:18;;;;;;;;;;;20.80;70.20;;;;;;5053145;28;19904;-37
2021/07/08 07:21:43;;;;;;;;;;;20.80;68.90;;;;;;5051392;28;19915;-37
2021/07/08 07:24:09;;;;;;;;;;;21.20;67.90;;;;;;5053666;28;19905;-37
2021/07/08 07:26:34;;;;;;;;;;;21.50;66.00;;;;;;5051748;28;19905;-37
2021/07/08 07:29:00;;;;;;;;;;;21.50;66.00;;;;;;5052790;28;19916;-37
2021/07/08 07:31:26;;;;;;;;;;;21.40;66.60;;;;;;5052861;28;19927;-37
2021/07/08 07:33:51;;;;;;;;;;;21.40;66.60;;;;;;5056819;28;20328;-37
2021/07/08 07:36:17;;;;;;;;;;;22.00;64.70;;;;;;5074741;28;20320;-37
2021/07/08 07:38:43;;;;;;;;;;;22.30;63.60;;;;;;5074969;28;19911;-37
2021/07/08 07:41:09;;;;;;;;;;;22.30;63.60;;;;;;5096429;28;20253;-37
2021/07/08 07:43:34;;;;;;;;;;;23.00;61.10;;;;;;5096950;28;19911;-37
2021/07/08 07:46:00;;;;;;;;;;;23.50;58.40;;;;;;5096954;28;19904;-37
2021/07/08 07:48:26;;;;;;;;;;;24.20;56.00;;;;;;5079019;28;20002;-37
2021/07/08 07:50:52;;;;;;;;;;;24.70;53.90;;;;;;5097620;28;20010;-49
2021/07/08 07:53:18;;;;;;;;;;;23.80;56.70;;;;;;5096224;28;20343;-38
2021/07/08 07:55:43;;;;;;;;;;;24.30;55.00;;;;;;5096518;28;19910;-37
2021/07/08 07:58:09;;;;;;;;;;;24.50;55.30;;;;;;5096397;28;19910;-37
2021/07/08 08:00:35;;;;;;;;;;;24.00;54.90;;;;;;5096345;28;19909;-37
2021/07/08 08:03:00;;;;;;;;;;;24.40;52.60;;;;;;5096205;28;19990;-37
2021/07/08 08:10:39;;;;;;;;;;;25.70;50.60;;;;;;5096150;28;20009;-37
2021/07/08 08:13:05;;;;;;;;;;;25.30;51.10;;;;;;5096223;28;19912;-38
2021/07/08 08:15:31;;;;;;;;;;;25.60;49.30;;;;;;5095933;28;19908;-37
2021/07/08 08:18:00;;;;;;;;;;;26.40;46.40;;;;;;5096212;28;19990;-38
2021/07/08 08:20:26;;;;;;;;;;;25.50;48.70;;;;;;5095510;28;19904;-38
2021/07/08 08:22:51;;;;;;;;;;;25.60;50.00;;;;;;5096188;28;19904;-38
2021/07/08 08:25:17;;;;;;;;;;;25.00;52.20;;;;;;5077352;28;19953;-37
2021/07/08 08:27:42;;;;;;;;;;;24.70;51.50;;;;;;5095608;28;19957;-39
2021/07/08 08:30:10;;;;;;;;;;;25.60;49.70;;;;;;5096089;28;20064;-37
2021/07/08 08:32:36;;;;;;;;;;;25.10;49.60;;;;;;5077282;28;19927;-41
2021/07/08 08:35:01;;;;;;;;;;;24.80;50.70;;;;;;5095541;28;19916;-38
2021/07/08 08:37:30;;;;;;;;;;;24.90;51.00;;;;;;5095640;28;19951;-38
2021/07/08 08:39:55;;;;;;;;;;;24.90;48.10;;;;;;5095944;28;19904;-38
2021/07/08 08:42:24;;;;;;;;;;;24.80;46.60;;;;;;5095327;28;19910;-38
2021/07/08 08:44:50;;;;;;;;;;;26.10;46.00;;;;;;5095453;28;19904;-38
2021/07/08 08:47:17;;;;;;;;;;;26.00;46.60;;;;;;5095265;28;19930;-38
2021/07/08 08:49:43;;;;;;;;;;;26.20;45.50;;;;;;5095604;28;19904;-38
2021/07/08 08:52:09;;;;;;;;;;;26.00;44.80;;;;;;5075756;28;19904;-38
2021/07/08 08:54:35;;;;;;;;;;;26.00;45.50;;;;;;5095411;28;19904;-38
2021/07/08 08:57:01;;;;;;;;;;;26.30;45.30;;;;;;5094882;28;19904;-40
2021/07/08 08:59:27;;;;;;;;;;;25.90;44.60;;;;;;5095260;28;20002;-38
2021/07/08 09:02:11;;;;;;;;;;;25.30;47.10;;;;;;5094742;28;19910;-37
2021/07/08 09:04:36;;;;;;;;;;;25.00;48.30;;;;;;5094811;28;19915;-37
2021/07/08 09:07:22;;;;;;;;;;;26.10;46.40;;;;;;5076540;28;19904;-38
2021/07/08 09:09:49;;;;;;;;;;;26.40;45.60;;;;;;5094503;28;19910;-39
2021/07/08 09:12:18;;;;;;;;;;;27.00;44.20;;;;;;5094920;28;19939;-38
2021/07/08 09:14:45;;;;;;;;;;;27.30;43.30;;;;;;5076560;28;19904;-38
2021/07/08 09:17:21;;;;;;;;;;;27.00;44.50;;;;;;5095126;28;20348;-39
2021/07/08 09:19:47;;;;;;;;;;;27.30;42.90;;;;;;5095017;28;19915;-36
2021/07/08 09:22:25;;;;;;;;;;;27.10;43.50;;;;;;5094574;28;19904;-38
2021/07/08 09:24:51;;;;;;;;;;;28.10;41.40;;;;;;5094919;28;19914;-37
2021/07/08 09:27:16;;;;;;;;;;;28.20;41.70;;;;;;5094417;28;20342;-38
2021/07/08 09:29:44;;;;;;;;;;;28.10;41.00;;;;;;5094464;28;20003;-38
2021/07/08 09:32:14;;;;;;;;;;;27.80;41.50;;;;;;5094508;28;19904;-38
2021/07/08 09:34:41;;;;;;;;;;;26.70;44.00;;;;;;5094364;28;19965;-37
2021/07/08 09:37:10;;;;;;;;;;;26.70;44.80;;;;;;5094385;28;19908;-38
2021/07/08 09:39:43;;;;;;;;;;;26.50;43.70;;;;;;5094156;28;20325;-38
2021/07/08 09:42:10;;;;;;;;;;;26.60;43.60;;;;;;5094387;28;19935;-37
2021/07/08 09:44:37;;;;;;;;;;;26.70;43.50;;;;;;5093983;28;19911;-38
2021/07/08 09:47:03;;;;;;;;;;;27.30;40.60;;;;;;5093301;28;19950;-38
2021/07/08 09:49:47;;;;;;;;;;;26.00;40.70;;;;;;5107614;28;19888;-44
2021/07/08 09:52:13;;;;;;;;;;;26.60;40.80;;;;;;5095162;28;20002;-52
2021/07/08 09:57:32;;;;;;;;;;;27.30;41.10;;;;;;5094674;28;19904;-50
2021/07/08 09:59:59;;;;;;;;;;;27.60;40.20;;;;;;5093896;28;19904;-47
2021/07/08 10:02:32;;;;;;;;;;;27.60;40.50;;;;;;5075672;28;19954;-54
2021/07/08 10:04:59;;;;;;;;;;;27.30;40.90;;;;;;5093264;28;19907;-55
2021/07/08 10:07:24;;;;;;;;;;;27.50;39.70;;;;;;5093698;28;19908;-53
2021/07/08 10:09:50;;;;;;;;;;;28.10;39.00;;;;;;5094100;28;19911;-50
2021/07/08 10:12:16;;;;;;;;;;;27.40;39.20;;;;;;5094197;28;19904;-52
2021/07/08 10:14:43;;;;;;;;;;;27.60;40.00;;;;;;5075537;28;19998;-49
2021/07/08 10:17:10;;;;;;;;;;;28.30;38.00;;;;;;5093999;28;19904;-51
2021/07/08 10:19:36;;;;;;;;;;;29.00;36.40;;;;;;5093957;28;20350;-49
2021/07/08 10:22:02;;;;;;;;;;;27.90;37.50;;;;;;5075423;28;20011;-49
2021/07/08 10:24:27;;;;;;;;;;;27.90;37.50;;;;;;5093639;28;19907;-51
2021/07/08 10:26:53;;;;;;;;;;;27.90;38.30;;;;;;5093355;28;19911;-54
2021/07/08 10:29:19;;;;;;;;;;;27.60;38.50;;;;;;5093548;28;20383;-51
2021/07/08 10:31:51;;;;;;;;;;;28.20;38.10;;;;;;5075215;28;19999;-51
2021/07/08 10:34:18;;;;;;;;;;;27.80;38.00;;;;;;5075236;28;19920;-49
2021/07/08 10:36:53;;;;;;;;;;;28.40;37.30;;;;;;5093576;28;20314;-52
2021/07/08 10:39:21;;;;;;;;;;;29.30;35.60;;;;;;5093662;28;19927;-49
2021/07/08 10:41:58;;;;;;;;;;;27.80;38.30;;;;;;5093511;28;20328;-50
2021/07/08 10:44:33;;;;;;;;;;;28.10;37.90;;;;;;5075241;28;20325;-50
2021/07/08 10:47:00;;;;;;;;;;;27.30;40.00;;;;;;5093398;28;19904;-47
2021/07/08 10:49:35;;;;;;;;;;;26.60;41.30;;;;;;5093390;28;19954;-53
2021/07/08 10:52:00;;;;;;;;;;;27.00;40.40;;;;;;5093615;28;19911;-50
2021/07/08 10:54:29;;;;;;;;;;;27.00;40.50;;;;;;5075094;28;19904;-48
2021/07/08 10:56:56;;;;;;;;;;;27.30;40.90;;;;;;5093320;28;19911;-47
2021/07/08 10:59:21;;;;;;;;;;;26.50;42.20;;;;;;5093356;28;20375;-48
2021/07/08 11:01:50;;;;;;;;;;;26.20;43.10;;;;;;5093544;28;19908;-53
2021/07/08 11:04:16;;;;;;;;;;;26.10;42.80;;;;;;5093689;28;19923;-53
2021/07/08 11:06:46;;;;;;;;;;;26.20;42.70;;;;;;5093094;28;19929;-53
2021/07/08 11:09:11;;;;;;;;;;;25.80;43.30;;;;;;5092925;28;19991;-50
2021/07/08 11:11:45;;;;;;;;;;;26.30;42.70;;;;;;5093240;28;19947;-49
2021/07/08 11:14:14;;;;;;;;;;;25.60;44.20;;;;;;5093437;28;20266;-53
2021/07/08 11:16:49;;;;;;;;;;;25.10;45.10;;;;;;5079248;28;20239;-48
2021/07/08 11:19:17;;;;;;;;;;;25.00;45.10;;;;;;5096976;28;20372;-50
2021/07/08 11:21:48;;;;;;;;;;;25.30;45.50;;;;;;5096815;28;19935;-53
2021/07/08 11:24:24;;;;;;;;;;;25.20;46.10;;;;;;5097048;28;19912;-48
2021/07/08 11:26:50;;;;;;;;;;;24.70;49.00;;;;;;5079215;28;19904;-54
2021/07/08 11:29:30;;;;;;;;;;;24.30;54.10;;;;;;5097902;28;19908;-48
2021/07/08 11:31:55;;;;;;;;;;;23.70;58.20;;;;;;5079585;28;19999;-51
2021/07/08 11:34:21;;;;;;;;;;;23.50;61.90;;;;;;5078640;28;19965;-48
2021/07/08 11:36:47;;;;;;;;;;;23.50;60.80;;;;;;5097112;28;19915;-53
2021/07/08 11:39:13;;;;;;;;;;;23.50;61.60;;;;;;5078727;28;19904;-51
2021/07/08 11:41:40;;;;;;;;;;;23.60;61.90;;;;;;5097060;28;19911;-49
2021/07/08 11:44:10;;;;;;;;;;;23.70;62.90;;;;;;5096995;28;19904;-51
2021/07/08 11:46:54;;;;;;;;;;;24.00;60.50;;;;;;5106407;28;19972;-44
2021/07/08 11:49:20;;;;;;;;;;;24.50;57.30;;;;;;5096146;28;19963;-50
2021/07/08 11:51:45;;;;;;;;;;;24.80;58.20;;;;;;5096381;28;20315;-49
2021/07/08 11:54:11;;;;;;;;;;;25.20;56.60;;;;;;5078276;28;19912;-52
2021/07/08 11:56:37;;;;;;;;;;;25.20;59.60;;;;;;5096585;28;19934;-52
2021/07/08 11:59:03;;;;;;;;;;;24.70;62.20;;;;;;5096776;28;19904;-50
2021/07/08 12:01:29;;;;;;;;;;;24.00;62.80;;;;;;5096239;28;19958;-48
2021/07/08 12:03:55;;;;;;;;;;;23.70;65.50;;;;;;5096238;28;20007;-49
2021/07/08 12:06:24;;;;;;;;;;;23.70;65.40;;;;;;5077920;28;19942;-51
2021/07/08 12:08:53;;;;;;;;;;;23.70;63.70;;;;;;5096365;28;19915;-52
2021/07/08 12:11:26;;;;;;;;;;;23.80;63.00;;;;;;5096046;28;19949;-53
2021/07/08 12:13:54;;;;;;;;;;;24.00;62.00;;;;;;5078441;28;19954;-49
2021/07/08 12:16:25;;;;;;;;;;;24.30;61.00;;;;;;5078001;28;19904;-50
2021/07/08 12:18:51;;;;;;;;;;;24.30;61.00;;;;;;5095858;28;20280;-49
2021/07/08 12:21:23;;;;;;;;;;;24.30;61.30;;;;;;5095940;28;19958;-51
2021/07/08 12:23:50;;;;;;;;;;;24.30;59.40;;;;;;5077927;28;19904;-51
2021/07/08 12:26:25;;;;;;;;;;;24.30;59.50;;;;;;5076898;28;20280;-49
2021/07/08 12:28:51;;;;;;;;;;;24.60;57.70;;;;;;5096491;28;20308;-51
2021/07/08 12:31:18;;;;;;;;;;;24.70;58.30;;;;;;5096109;28;20004;-49
2021/07/08 12:33:54;;;;;;;;;;;24.80;58.20;;;;;;5095513;28;19904;-49
2021/07/08 12:36:19;;;;;;;;;;;24.90;57.50;;;;;;5077669;28;19904;-48
2021/07/08 12:38:47;;;;;;;;;;;25.10;55.90;;;;;;5095421;28;19911;-47
2021/07/08 12:41:15;;;;;;;;;;;25.30;54.00;;;;;;5095642;28;19904;-50
2021/07/08 12:43:40;;;;;;;;;;;25.30;51.90;;;;;;5096072;28;19904;-50
2021/07/08 12:46:09;;;;;;;;;;;25.00;53.20;;;;;;5096758;28;19915;-51
2021/07/08 12:48:35;;;;;;;;;;;25.10;53.50;;;;;;5095223;28;19912;-49
2021/07/08 12:51:00;;;;;;;;;;;25.20;51.10;;;;;;5095730;28;19904;-48
2021/07/08 12:53:26;;;;;;;;;;;25.00;51.90;;;;;;5096398;28;19908;-52
2021/07/08 12:55:58;;;;;;;;;;;24.40;52.90;;;;;;5095941;28;19908;-49
2021/07/08 12:58:25;;;;;;;;;;;24.20;53.20;;;;;;5096511;28;19935;-50
2021/07/08 13:00:51;;;;;;;;;;;24.30;52.90;;;;;;5077480;28;19927;-49
2021/07/08 13:03:21;;;;;;;;;;;24.10;58.80;;;;;;5096152;28;20263;-50
2021/07/08 13:05:47;;;;;;;;;;;23.80;60.20;;;;;;5076805;28;19908;-49
2021/07/08 13:08:14;;;;;;;;;;;23.80;61.00;;;;;;5094792;28;19915;-49
2021/07/08 13:10:42;;;;;;;;;;;23.90;60.10;;;;;;5095371;28;19904;-52
2021/07/08 13:13:09;;;;;;;;;;;24.10;60.50;;;;;;5078082;28;20381;-50
2021/07/08 13:15:35;;;;;;;;;;;23.80;60.40;;;;;;5095366;28;19905;-51
2021/07/08 13:18:07;;;;;;;;;;;23.70;61.90;;;;;;5094827;28;19911;-47
2021/07/08 13:20:34;;;;;;;;;;;23.20;61.30;;;;;;5076348;28;19915;-57
2021/07/08 13:23:26;;;;;;;;;;;23.20;60.10;;;;;;5094676;28;20259;-52
2021/07/08 13:25:55;;;;;;;;;;;22.80;61.80;;;;;;5073892;28;19904;-48
2021/07/08 13:28:28;;;;;;;;;;;22.80;63.10;;;;;;5095366;28;19915;-50
2021/07/08 13:30:59;;;;;;;;;;;22.80;63.80;;;;;;5095142;28;19903;-49
2021/07/08 13:33:43;;;;;;;;;;;22.70;63.40;;;;;;5094597;28;19915;-51
2021/07/08 13:36:09;;;;;;;;;;;22.30;64.30;;;;;;5094895;28;19912;-47
2021/07/08 13:38:35;;;;;;;;;;;22.40;64.70;;;;;;5094286;28;19904;-49
2021/07/08 13:41:12;;;;;;;;;;;22.40;65.50;;;;;;5095570;28;19969;-49
2021/07/08 13:43:37;;;;;;;;;;;22.30;65.50;;;;;;5094787;28;19983;-51
2021/07/08 13:46:13;;;;;;;;;;;22.30;65.50;;;;;;5076296;28;19992;-49
2021/07/08 13:48:39;;;;;;;;;;;22.20;65.90;;;;;;5075965;28;19912;-47
2021/07/08 13:51:05;;;;;;;;;;;22.30;67.00;;;;;;5094872;28;19903;-47
2021/07/08 13:53:31;;;;;;;;;;;22.40;67.10;;;;;;5095834;28;20328;-50
2021/07/08 13:55:57;;;;;;;;;;;22.40;67.80;;;;;;5096739;28;19962;-49
2021/07/08 13:58:22;;;;;;;;;;;22.50;67.80;;;;;;5075932;28;19949;-48
2021/07/08 14:00:48;;;;;;;;;;;22.60;68.40;;;;;;5094404;28;19911;-48
2021/07/08 14:03:14;;;;;;;;;;;22.70;68.10;;;;;;5093765;28;20279;-47
2021/07/08 14:05:40;;;;;;;;;;;22.70;67.70;;;;;;5075993;28;19991;-47
2021/07/08 14:08:05;;;;;;;;;;;22.60;68.20;;;;;;5093768;28;20316;-51
2021/07/08 14:10:31;;;;;;;;;;;22.40;68.70;;;;;;5093738;28;19911;-49
2021/07/08 14:12:56;;;;;;;;;;;22.30;69.70;;;;;;5075767;28;19980;-52
2021/07/08 14:15:22;;;;;;;;;;;22.40;70.90;;;;;;5094554;28;19904;-49
2021/07/08 14:17:47;;;;;;;;;;;22.70;70.00;;;;;;5094391;28;19911;-52
2021/07/08 14:20:13;;;;;;;;;;;22.60;70.00;;;;;;5093625;28;20360;-48
2021/07/08 14:22:39;;;;;;;;;;;22.60;67.90;;;;;;5075267;28;19903;-51